Kyle, West Virginia
Current Conditions -  °F | °C
As of 1:52 PM on Friday 28 Nov 2014 (Local Time) from KBLF Reporting Station
Overcast Overcast  
Wind Chill: 18°   Ceiling: 1700
Heat Index: 26°   Visibility: 10mi
Dew Point: 16°   Wind: 7mph
Humidity: 66%   Direction: 300°WNW
Pressure: 30.23"   Gusts: NA
Location:  37.41°N, 81.43°W
Report Text: KBLF 281852Z AUTO 30006KT 10SM OVC017 M03/M09 A3023 RMK AO2 SLP262 T10331089 $
Loading
Personal Weather Stations






























Interactive Weather Map New forecast layout! Learn more

10-Day Weather Forecast

Advertisements
Track Severe Weather on mobile